createdAt,value
2018-05-17T00:01:48.552Z,14.61
2018-05-17T00:06:49.528Z,14.69
2018-05-17T00:11:50.471Z,14.69
2018-05-17T00:16:51.666Z,14.43
2018-05-17T00:21:52.694Z,14.36
2018-05-17T00:26:53.666Z,14.39
2018-05-17T00:31:54.643Z,14.15
2018-05-17T00:36:55.608Z,14.13
2018-05-17T00:41:56.583Z,14.04
2018-05-17T00:46:57.569Z,14.06
2018-05-17T00:51:58.556Z,14.17
2018-05-17T00:56:59.532Z,14.10
2018-05-17T01:02:00.522Z,14.08
2018-05-17T01:07:01.510Z,14.17
2018-05-17T01:12:02.515Z,14.21
2018-05-17T01:17:03.512Z,14.01
2018-05-17T01:22:04.529Z,14.16
2018-05-17T01:27:05.513Z,14.16
2018-05-17T01:32:06.486Z,13.94
2018-05-17T01:37:19.836Z,14.01
2018-05-17T01:42:20.798Z,13.89
2018-05-17T01:47:21.762Z,13.79
2018-05-17T01:52:22.752Z,13.91
2018-05-17T01:57:23.736Z,13.87
2018-05-17T02:02:24.708Z,13.72
2018-05-17T02:07:25.698Z,13.58
2018-05-17T02:12:26.688Z,13.85
2018-05-17T02:17:27.676Z,13.57
2018-05-17T02:22:28.667Z,13.57
2018-05-17T02:27:29.670Z,13.36
2018-05-17T02:32:30.652Z,13.46
2018-05-17T02:37:31.638Z,13.47
2018-05-17T02:42:32.629Z,13.33
2018-05-17T02:47:33.616Z,13.22
2018-05-17T02:52:34.609Z,13.23
2018-05-17T02:57:35.589Z,13.25
2018-05-17T03:02:36.591Z,13.02
2018-05-17T03:07:37.557Z,13.18
2018-05-17T03:12:38.540Z,13.17
2018-05-17T03:17:39.518Z,13.07
2018-05-17T03:22:40.519Z,13.25
2018-05-17T03:27:41.492Z,13.25
2018-05-17T03:32:42.469Z,13.46
2018-05-17T03:37:43.449Z,13.44
2018-05-17T03:42:44.428Z,13.46
2018-05-17T03:47:45.401Z,13.43
2018-05-17T03:52:46.375Z,13.52
2018-05-17T03:57:47.367Z,13.56
2018-05-17T04:03:00.605Z,13.50
2018-05-17T04:08:01.588Z,13.55
2018-05-17T04:13:02.551Z,13.65
2018-05-17T04:18:03.543Z,13.79
2018-05-17T04:23:04.560Z,13.95
2018-05-17T04:28:05.555Z,13.93
2018-05-17T04:33:06.526Z,14.11
2018-05-17T04:38:07.507Z,14.01
2018-05-17T04:43:08.503Z,14.22
2018-05-17T04:48:09.516Z,13.87
2018-05-17T04:53:10.491Z,13.57
2018-05-17T04:58:11.463Z,13.78
2018-05-17T05:03:12.449Z,14.20
2018-05-17T05:08:13.438Z,14.08
2018-05-17T05:13:14.434Z,13.93
2018-05-17T05:18:15.432Z,13.96
2018-05-17T05:23:16.439Z,13.80
2018-05-17T05:28:17.400Z,13.88
2018-05-17T05:33:18.386Z,14.11
2018-05-17T05:38:19.373Z,14.24
2018-05-17T05:43:20.367Z,14.49
2018-05-17T05:48:21.320Z,14.50
2018-05-17T05:53:22.285Z,14.25
2018-05-17T05:58:23.267Z,14.09
2018-05-17T06:03:31.161Z,14.38
2018-05-17T06:08:32.175Z,14.23
2018-05-17T06:13:33.149Z,14.53
2018-05-17T06:18:34.108Z,14.75
2018-05-17T06:23:35.135Z,14.80
2018-05-17T06:28:36.108Z,14.84
2018-05-17T06:33:37.090Z,15.06
2018-05-17T06:38:38.061Z,15.21
2018-05-17T06:43:39.035Z,15.20
2018-05-17T06:48:40.003Z,15.38
2018-05-17T06:53:40.988Z,15.61
2018-05-17T06:58:41.988Z,15.32
2018-05-17T07:03:42.959Z,15.83
2018-05-17T07:08:43.923Z,15.96
2018-05-17T07:13:44.953Z,16.05
2018-05-17T07:18:46.299Z,15.56
2018-05-17T07:23:46.938Z,16.01
2018-05-17T07:28:47.910Z,16.48
2018-05-17T07:33:48.872Z,16.18
2018-05-17T07:38:49.849Z,16.23
2018-05-17T07:43:50.851Z,16.15
2018-05-17T07:48:51.888Z,16.09
2018-05-17T07:53:52.884Z,16.87
2018-05-17T07:58:53.849Z,17.06
2018-05-17T08:03:54.805Z,16.45
2018-05-17T08:08:55.779Z,16.41
2018-05-17T08:13:56.752Z,16.88
2018-05-17T08:18:58.162Z,17.12
2018-05-17T08:23:59.217Z,17.58
2018-05-17T08:29:00.315Z,17.15
2018-05-17T08:39:10.266Z,17.32
2018-05-17T08:44:11.334Z,17.07
2018-05-17T08:49:12.348Z,17.28
2018-05-17T08:54:13.365Z,17.51
2018-05-17T08:59:14.384Z,17.24
2018-05-17T09:04:15.383Z,17.34
2018-05-17T09:09:16.365Z,17.66
2018-05-17T09:14:17.359Z,17.74
2018-05-17T09:19:18.397Z,17.80
2018-05-17T09:24:19.432Z,17.92
2018-05-17T09:29:20.492Z,17.34
2018-05-17T09:34:21.576Z,17.67
2018-05-17T09:39:22.555Z,17.31
2018-05-17T09:44:23.562Z,17.50
2018-05-17T09:49:24.574Z,17.54
2018-05-17T09:54:25.675Z,17.94
2018-05-17T09:59:26.664Z,17.79
2018-05-17T10:04:27.644Z,17.96
2018-05-17T10:09:28.618Z,18.36
2018-05-17T10:14:29.627Z,18.23
2018-05-17T10:19:30.645Z,17.89
2018-05-17T10:24:31.695Z,18.35
2018-05-17T10:29:32.772Z,18.62
2018-05-17T10:34:33.738Z,18.37
2018-05-17T10:39:34.752Z,18.79
2018-05-17T10:44:35.745Z,18.43
2018-05-17T10:49:36.752Z,18.87
2018-05-17T10:54:37.796Z,19.15
2018-05-17T10:59:38.764Z,19.30
2018-05-17T11:04:39.732Z,20.15
2018-05-17T11:09:40.741Z,19.33
2018-05-17T11:14:41.730Z,20.55
2018-05-17T11:19:42.699Z,20.35
2018-05-17T11:24:43.704Z,21.06
2018-05-17T11:29:44.687Z,20.34
2018-05-17T11:34:45.666Z,21.21
2018-05-17T11:39:46.681Z,21.65
2018-05-17T11:44:47.648Z,21.26
2018-05-17T11:49:48.652Z,21.06
2018-05-17T11:54:49.644Z,21.43
2018-05-17T11:59:50.609Z,22.31
2018-05-17T12:04:51.606Z,23.19
2018-05-17T12:09:59.661Z,22.68
2018-05-17T12:15:00.648Z,21.94
2018-05-17T12:20:02.071Z,21.62
2018-05-17T12:25:03.364Z,20.83
2018-05-17T12:30:04.339Z,20.86
2018-05-17T12:35:05.371Z,22.52
2018-05-17T12:40:06.375Z,22.58
2018-05-17T12:45:07.375Z,21.74
2018-05-17T12:50:08.409Z,21.47
2018-05-17T12:55:09.386Z,21.22
2018-05-17T13:00:10.369Z,20.86
2018-05-17T13:05:29.159Z,21.38
2018-05-17T13:10:30.154Z,22.60
2018-05-17T13:15:31.208Z,21.34
2018-05-17T13:20:32.193Z,20.72
2018-05-17T13:25:33.214Z,20.38
2018-05-17T13:30:34.223Z,20.26
2018-05-17T13:35:35.234Z,20.53
2018-05-17T13:40:36.307Z,20.69
2018-05-17T13:45:37.306Z,19.90
2018-05-17T13:50:38.325Z,20.68
2018-05-17T13:55:39.383Z,19.91
2018-05-17T14:00:40.279Z,19.88
2018-05-17T14:05:41.276Z,19.71
2018-05-17T14:10:42.264Z,19.34
2018-05-17T14:15:43.293Z,19.00
2018-05-17T14:20:44.293Z,18.97
2018-05-17T14:25:45.284Z,19.21
2018-05-17T14:30:46.257Z,18.92
2018-05-17T14:35:47.224Z,19.47
2018-05-17T14:40:48.208Z,18.96
2018-05-17T14:45:49.221Z,18.54
2018-05-17T14:50:50.213Z,19.23
2018-05-17T14:55:51.502Z,19.41
2018-05-17T15:00:52.440Z,19.29
2018-05-17T15:05:53.418Z,19.07
2018-05-17T15:10:54.439Z,19.25
2018-05-17T15:15:55.423Z,18.69
2018-05-17T15:20:56.393Z,18.44
2018-05-17T15:25:57.489Z,18.33
2018-05-17T15:30:59.911Z,19.15
2018-05-17T15:36:00.971Z,18.49
2018-05-17T15:41:01.981Z,18.34
2018-05-17T15:46:03.018Z,17.69
2018-05-17T15:51:04.049Z,17.73
2018-05-17T15:56:05.082Z,17.63
2018-05-17T16:01:06.068Z,17.92
2018-05-17T16:06:07.081Z,17.65
2018-05-17T16:11:08.081Z,17.50
2018-05-17T16:16:09.430Z,17.71
2018-05-17T16:21:10.457Z,17.75
2018-05-17T16:26:11.524Z,17.84
2018-05-17T16:31:12.520Z,17.98
2018-05-17T16:36:13.499Z,17.86
2018-05-17T16:41:14.516Z,17.73
2018-05-17T16:46:15.543Z,17.91
2018-05-17T16:51:16.596Z,17.62
2018-05-17T16:56:17.616Z,18.14
2018-05-17T17:01:18.692Z,19.41
2018-05-17T17:06:19.712Z,19.39
2018-05-17T17:11:20.716Z,19.27
2018-05-17T17:16:21.716Z,19.97
2018-05-17T17:21:22.723Z,20.18
2018-05-17T17:26:23.791Z,20.11
2018-05-17T17:31:24.823Z,19.48
2018-05-17T17:36:25.862Z,19.36
2018-05-17T17:41:26.941Z,19.42
2018-05-17T17:46:27.930Z,19.36
2018-05-17T17:51:28.945Z,19.08
2018-05-17T17:56:30.006Z,18.58
2018-05-17T18:01:31.020Z,18.39
2018-05-17T18:06:32.887Z,18.21
2018-05-17T18:11:33.925Z,17.95
2018-05-17T18:16:34.930Z,17.82
2018-05-17T18:21:36.520Z,17.93
2018-05-17T18:26:37.676Z,17.78
2018-05-17T18:31:38.866Z,17.52
2018-05-17T18:36:46.961Z,17.32
2018-05-17T18:41:48.289Z,16.96
2018-05-17T18:46:49.299Z,16.98
2018-05-17T18:51:50.493Z,17.03
2018-05-17T18:56:51.637Z,16.85
2018-05-17T19:01:53.538Z,16.72
2018-05-17T19:06:54.630Z,16.74
2018-05-17T19:11:56.421Z,16.73
2018-05-17T19:16:57.691Z,16.74
2018-05-17T19:21:58.774Z,16.60
2018-05-17T19:27:00.158Z,16.52
2018-05-17T19:32:01.343Z,16.34
2018-05-17T19:37:02.484Z,16.34
2018-05-17T19:42:03.507Z,16.31
2018-05-17T19:47:04.568Z,16.23
2018-05-17T19:52:05.659Z,16.13
2018-05-17T19:57:06.789Z,15.91
2018-05-17T20:02:07.864Z,15.95
2018-05-17T20:07:08.916Z,16.01
2018-05-17T20:12:09.985Z,15.82
2018-05-17T20:17:11.024Z,15.76
2018-05-17T20:22:12.044Z,15.90
2018-05-17T20:27:13.057Z,15.72
2018-05-17T20:32:14.073Z,15.72
2018-05-17T20:37:15.143Z,15.73
2018-05-17T20:42:16.150Z,15.73
2018-05-17T20:47:17.169Z,15.67
2018-05-17T20:52:18.174Z,15.62
2018-05-17T20:57:19.187Z,15.56
2018-05-17T21:02:20.196Z,15.39
2018-05-17T21:07:21.197Z,15.32
2018-05-17T21:12:22.213Z,15.36
2018-05-17T21:17:23.230Z,15.43
2018-05-17T21:22:24.238Z,15.42
2018-05-17T21:27:25.261Z,15.41
2018-05-17T21:32:26.266Z,15.39
2018-05-17T21:37:27.272Z,15.41
2018-05-17T21:42:28.303Z,15.27
2018-05-17T21:47:29.381Z,15.21
2018-05-17T21:52:30.400Z,15.33
2018-05-17T21:57:31.496Z,15.23
2018-05-17T22:02:32.504Z,15.03
2018-05-17T22:07:33.564Z,15.12
2018-05-17T22:12:34.455Z,15.00
2018-05-17T22:17:35.447Z,15.05
2018-05-17T22:22:36.421Z,14.96
2018-05-17T22:27:37.418Z,14.96
2018-05-17T22:32:38.415Z,15.02
2018-05-17T22:37:39.398Z,14.92
2018-05-17T22:42:40.405Z,14.91
2018-05-17T22:47:43.220Z,14.87
2018-05-17T22:52:44.237Z,14.75
2018-05-17T22:57:57.508Z,14.79
2018-05-17T23:02:58.499Z,14.77
2018-05-17T23:07:59.459Z,14.83
2018-05-17T23:13:00.478Z,14.83
2018-05-17T23:18:01.703Z,14.84
2018-05-17T23:23:02.768Z,14.79
2018-05-17T23:28:03.764Z,14.71
2018-05-17T23:33:04.781Z,14.63
2018-05-17T23:38:05.765Z,14.44
2018-05-17T23:43:06.754Z,14.36
2018-05-17T23:48:07.722Z,14.36
2018-05-17T23:53:08.707Z,14.31
2018-05-17T23:58:09.685Z,14.46
